Saint-Gerard, Canada
Current Conditions -  °F | °C
As of 8:00 PM on Monday 22 Dec 2014 (Local Time) from CYSC Reporting Station
Overcast Overcast  
Wind Chill: 27°   Ceiling: 3800
Heat Index: 27°   Visibility: 9mi
Dew Point: 27°   Wind: 0mph
Humidity: 100%   Direction: NA
Pressure: 30.29"   Gusts: NA
Location:  45.77°N, 71.42°W
Report Text: CYSC 230100Z AUTO 00000KT 9SM OVC038 M03/M03 A3029 RMK SLP273
Loading
Personal Weather Stations






























Interactive Weather Map New forecast layout! Learn more

10-Day Weather Forecast

Advertisements
Track Severe Weather on mobile